Time;durP1;ratioP1;P1;durP2;ratioP2;P2;SDS_P1;SDS_P2;PMS_P1;PMS_P2;Temp;Humidity;BMP_temperature;BMP_pressure;BME280_temperature;BME280_humidity;BME280_pressure;Samples;Min_cycle;Max_cycle;Signal;HPM_P1;HPM_P2
2022/07/11 00:01:38;;;;;;;;;5.00;3.00;;;;;22.59;40.94;101656.88;5031692;28;59028;-47
2022/07/11 00:04:03;;;;;;;;;4.25;2.50;;;;;22.58;41.10;101655.19;5033858;28;45392;-47
2022/07/11 00:06:29;;;;;;;;;3.75;3.25;;;;;22.58;41.04;101657.00;5033496;28;45454;-47
2022/07/11 00:08:54;;;;;;;;;3.50;3.00;;;;;22.55;41.04;101658.91;5028613;28;72085;-49
2022/07/11 00:11:19;;;;;;;;;4.00;3.00;;;;;22.52;41.16;101658.22;5036781;28;45434;-47
2022/07/11 00:13:45;;;;;;;;;7.00;5.25;;;;;22.51;40.70;101665.38;5035806;28;45351;-51
2022/07/11 00:16:10;;;;;;;;;5.00;5.00;;;;;22.49;41.00;101664.63;5030224;28;66522;-52
2022/07/11 00:18:35;;;;;;;;;5.00;2.75;;;;;22.46;41.18;101654.16;5033193;28;46372;-49
2022/07/11 00:21:01;;;;;;;;;4.00;3.00;;;;;22.45;40.92;101662.25;5034646;28;45480;-51
2022/07/11 00:23:26;;;;;;;;;3.00;3.00;;;;;22.42;41.02;101659.78;5031943;28;58383;-51
2022/07/11 00:25:51;;;;;;;;;3.00;3.00;;;;;22.42;41.01;101662.47;5032479;28;45331;-48
2022/07/11 00:28:17;;;;;;;;;3.50;2.25;;;;;22.39;41.04;101667.97;5025294;28;74401;-50
2022/07/11 00:30:42;;;;;;;;;3.00;2.75;;;;;22.37;40.91;101671.56;5034259;28;45844;-51
2022/07/11 00:33:08;;;;;;;;;3.00;2.00;;;;;22.34;41.20;101662.91;5034224;28;45273;-47
2022/07/11 00:35:33;;;;;;;;;2.00;2.00;;;;;22.31;41.36;101663.97;5036062;28;59506;-49
2022/07/11 00:37:58;;;;;;;;;2.00;2.00;;;;;22.29;41.13;101663.22;5036397;28;53437;-47
2022/07/11 00:40:24;;;;;;;;;2.25;1.75;;;;;22.28;41.31;101664.16;5032404;28;45608;-49
2022/07/11 00:42:49;;;;;;;;;4.50;3.00;;;;;22.27;41.48;101662.41;5033612;28;45276;-50
2022/07/11 00:45:14;;;;;;;;;3.00;3.00;;;;;22.27;41.13;101664.25;5033807;28;55883;-47
2022/07/11 00:47:40;;;;;;;;;5.00;4.00;;;;;22.25;41.61;101656.31;5031107;28;54023;-47
2022/07/11 00:50:05;;;;;;;;;4.00;3.50;;;;;22.23;41.33;101655.53;5028885;28;45390;-47
2022/07/11 00:52:31;;;;;;;;;4.50;3.00;;;;;22.23;41.32;101652.03;5035623;28;45646;-51
2022/07/11 00:54:57;;;;;;;;;3.25;3.00;;;;;22.21;41.94;101649.44;5028037;28;72395;-50
2022/07/11 00:57:22;;;;;;;;;4.75;3.25;;;;;22.21;42.07;101643.28;5034993;28;75404;-47
2022/07/11 00:59:48;;;;;;;;;4.00;3.75;;;;;22.20;41.56;101650.38;5025958;28;56872;-49
2022/07/11 01:02:14;;;;;;;;;3.00;3.00;;;;;22.19;41.92;101651.34;5049069;28;45357;-48
2022/07/11 01:04:39;;;;;;;;;2.25;2.25;;;;;22.16;41.93;101641.72;5035837;28;45403;-51
2022/07/11 01:07:05;;;;;;;;;3.00;2.00;;;;;22.14;42.06;101643.63;5031097;28;45384;-48
2022/07/11 01:09:31;;;;;;;;;2.50;2.50;;;;;22.14;41.62;101638.31;5030953;28;45478;-50
2022/07/11 01:11:57;;;;;;;;;5.00;4.00;;;;;22.13;42.02;101646.38;5028562;28;45396;-51
2022/07/11 01:14:23;;;;;;;;;3.00;3.00;;;;;22.09;41.69;101645.72;5023200;28;45348;-52
2022/07/11 01:16:49;;;;;;;;;3.75;3.00;;;;;22.10;41.72;101642.13;5029648;28;46298;-51
2022/07/11 01:19:15;;;;;;;;;4.75;4.75;;;;;22.08;42.19;101648.47;5024272;28;45301;-46
2022/07/11 01:21:43;;;;;;;;;6.75;4.00;;;;;22.06;41.82;101642.38;5026637;28;45466;-48
2022/07/11 01:24:09;;;;;;;;;3.00;3.00;;;;;22.04;41.76;101639.81;5024770;28;45307;-50
2022/07/11 01:26:34;;;;;;;;;4.50;3.00;;;;;22.02;41.93;101638.19;5028045;28;45400;-56
2022/07/11 01:29:07;;;;;;;;;3.75;3.25;;;;;21.98;42.21;101638.38;5015847;28;45358;-51
2022/07/11 01:31:33;;;;;;;;;2.50;2.25;;;;;21.97;42.33;101638.47;5029465;28;45547;-50
2022/07/11 01:33:58;;;;;;;;;4.50;4.00;;;;;21.95;41.96;101641.22;5025495;28;45536;-47
2022/07/11 01:36:24;;;;;;;;;2.00;2.00;;;;;21.92;42.06;101638.75;5033342;28;46134;-48
2022/07/11 01:38:49;;;;;;;;;3.50;2.00;;;;;21.87;42.41;101642.63;5035371;28;66712;-48
2022/07/11 01:41:14;;;;;;;;;5.00;4.00;;;;;21.86;42.31;101640.94;5029884;28;57768;-47
2022/07/11 01:43:40;;;;;;;;;3.00;3.00;;;;;21.84;42.25;101646.34;5030339;28;68761;-50
2022/07/11 01:46:05;;;;;;;;;4.00;2.00;;;;;21.82;42.27;101645.59;5029879;28;63823;-51
2022/07/11 01:48:30;;;;;;;;;3.00;3.00;;;;;21.79;42.35;101649.28;5023150;28;45372;-51
2022/07/11 01:50:56;;;;;;;;;6.00;4.50;;;;;21.77;42.40;101645.00;5028817;28;45687;-48
2022/07/11 01:53:21;;;;;;;;;4.00;4.00;;;;;21.74;42.97;101646.06;5035458;28;45534;-46
2022/07/11 01:55:47;;;;;;;;;5.00;5.00;;;;;21.73;43.22;101648.81;5032693;28;45491;-48
2022/07/11 01:58:12;;;;;;;;;4.75;4.50;;;;;21.69;42.63;101637.47;5028170;28;45435;-47
2022/07/11 02:00:38;;;;;;;;;5.00;5.00;;;;;21.69;42.85;101641.94;5033369;28;45364;-49
2022/07/11 02:03:03;;;;;;;;;8.00;5.00;;;;;21.66;42.93;101640.31;5036137;28;45576;-46
2022/07/11 02:05:29;;;;;;;;;3.00;3.00;;;;;21.62;42.51;101638.81;5030448;28;47118;-46
2022/07/11 02:08:12;;;;;;;;;3.25;3.25;;;;;21.60;42.81;101646.88;5021824;28;45358;-48
2022/07/11 02:10:42;;;;;;;;;6.50;5.00;;;;;21.56;43.48;101641.81;5028033;28;45632;-46
2022/07/11 02:13:09;;;;;;;;;5.00;4.00;;;;;21.54;43.46;101646.38;5043187;28;45513;-47
2022/07/11 02:15:35;;;;;;;;;6.50;4.00;;;;;21.53;43.08;101636.66;5029427;28;46881;-47
2022/07/11 02:18:00;;;;;;;;;5.25;5.00;;;;;21.51;43.51;101649.22;5030078;28;45825;-49
2022/07/11 02:20:25;;;;;;;;;8.25;5.75;;;;;21.48;43.35;101641.38;5033143;28;45550;-49
2022/07/11 02:22:51;;;;;;;;;5.25;4.25;;;;;21.47;43.51;101645.88;5036683;28;60175;-48
2022/07/11 02:25:17;;;;;;;;;6.00;4.75;;;;;21.47;43.70;101642.34;5033639;28;45538;-49
2022/07/11 02:27:43;;;;;;;;;4.00;3.00;;;;;21.46;43.27;101637.97;5035021;28;45237;-49
2022/07/11 02:30:08;;;;;;;;;3.50;3.25;;;;;21.44;43.65;101638.00;5034185;28;45478;-48
2022/07/11 02:32:34;;;;;;;;;4.00;4.00;;;;;21.43;43.23;101638.97;5034769;28;45705;-50
2022/07/11 02:35:00;;;;;;;;;3.00;3.00;;;;;21.40;43.70;101637.34;5038597;28;46385;-50
2022/07/11 02:37:26;;;;;;;;;3.00;3.00;;;;;21.37;43.76;101634.88;5033445;28;45215;-48
2022/07/11 02:39:51;;;;;;;;;4.25;3.00;;;;;21.36;43.59;101634.97;5033982;28;45230;-51
2022/07/11 02:42:18;;;;;;;;;5.00;4.00;;;;;21.34;43.82;101640.38;5039376;28;45380;-49
2022/07/11 02:44:44;;;;;;;;;2.00;2.00;;;;;21.32;43.76;101631.63;5034441;28;46341;-50
2022/07/11 02:47:09;;;;;;;;;5.25;3.25;;;;;21.30;43.89;101636.19;5036974;28;45869;-51
2022/07/11 02:49:34;;;;;;;;;2.75;2.75;;;;;21.28;43.46;101632.72;5027951;28;66119;-52
2022/07/11 02:52:00;;;;;;;;;3.50;3.50;;;;;21.27;43.84;101639.00;5038712;28;45467;-53
2022/07/11 02:54:25;;;;;;;;;3.25;3.25;;;;;21.27;43.71;101643.50;5032178;28;45359;-52
2022/07/11 02:56:50;;;;;;;;;4.25;3.00;;;;;21.24;43.78;101639.19;5037333;28;49325;-52
2022/07/11 02:59:16;;;;;;;;;5.75;3.75;;;;;21.23;43.79;101637.47;5030598;28;46269;-46
2022/07/11 03:01:42;;;;;;;;;3.75;3.50;;;;;21.21;43.99;101634.03;5032694;28;61277;-54
2022/07/11 03:04:08;;;;;;;;;5.00;4.75;;;;;21.20;43.58;101637.66;5030764;28;70949;-51
2022/07/11 03:06:33;;;;;;;;;5.25;4.25;;;;;21.19;44.08;101635.94;5034156;28;45734;-50
2022/07/11 03:08:59;;;;;;;;;4.50;4.00;;;;;21.18;44.32;101635.06;5026410;28;45870;-48
2022/07/11 03:11:24;;;;;;;;;6.50;4.75;;;;;21.17;44.17;101630.69;5029931;28;46890;-51
2022/07/11 03:13:50;;;;;;;;;5.25;3.75;;;;;21.15;44.03;101629.06;5032706;28;45492;-46
2022/07/11 03:16:15;;;;;;;;;4.00;3.00;;;;;21.12;44.41;101627.41;5032338;28;45241;-48
2022/07/11 03:18:40;;;;;;;;;3.25;3.25;;;;;21.11;44.14;101625.72;5032549;28;45292;-48
2022/07/11 03:21:06;;;;;;;;;4.00;3.25;;;;;21.10;44.10;101625.81;5031063;28;45534;-48
2022/07/11 03:23:31;;;;;;;;;5.50;5.00;;;;;21.09;44.19;101626.75;5025187;28;45673;-48
2022/07/11 03:25:56;;;;;;;;;3.00;3.00;;;;;21.06;44.83;101627.78;5040846;28;46115;-48
2022/07/11 03:28:22;;;;;;;;;3.00;3.00;;;;;21.03;44.70;101636.81;5035037;28;66072;-51
2022/07/11 03:30:47;;;;;;;;;6.00;3.00;;;;;21.02;44.52;101632.44;5029313;28;69806;-48
2022/07/11 03:33:12;;;;;;;;;3.00;3.00;;;;;21.02;44.63;101631.59;5044248;28;46615;-47
2022/07/11 03:35:40;;;;;;;;;3.50;3.50;;;;;21.01;44.59;101633.34;5028817;28;73254;-49
2022/07/11 03:38:06;;;;;;;;;4.00;4.00;;;;;21.00;44.55;101633.44;5029459;28;45424;-52
2022/07/11 03:40:32;;;;;;;;;5.50;5.00;;;;;21.00;44.52;101638.75;5031586;28;45489;-47
2022/07/11 03:42:57;;;;;;;;;4.50;4.00;;;;;20.97;44.83;101639.81;5029819;28;69089;-48
2022/07/11 03:45:23;;;;;;;;;4.00;4.00;;;;;20.96;44.70;101637.22;5032231;28;64820;-47
2022/07/11 03:47:49;;;;;;;;;8.25;3.75;;;;;20.95;44.67;101639.03;5029039;28;45749;-46
2022/07/11 03:50:14;;;;;;;;;4.50;3.00;;;;;20.94;44.98;101631.16;5034060;28;45541;-46
2022/07/11 03:52:40;;;;;;;;;5.00;4.00;;;;;20.92;44.84;101633.88;5032997;28;45435;-50
2022/07/11 03:55:07;;;;;;;;;2.00;2.00;;;;;20.91;44.61;101632.19;5032978;28;45502;-48
2022/07/11 03:57:33;;;;;;;;;2.00;2.00;;;;;20.89;44.65;101626.06;5032116;28;45679;-49
2022/07/11 03:59:59;;;;;;;;;2.00;2.00;;;;;20.86;45.02;101626.25;5036288;28;45390;-50
2022/07/11 04:02:24;;;;;;;;;5.25;2.50;;;;;20.85;44.73;101632.53;5032496;28;46345;-50
2022/07/11 04:04:50;;;;;;;;;4.25;3.00;;;;;20.84;44.99;101633.44;5032392;28;55685;-52
2022/07/11 04:07:15;;;;;;;;;4.00;3.00;;;;;20.81;44.85;101629.16;5029968;28;45424;-51
2022/07/11 04:09:40;;;;;;;;;4.00;3.00;;;;;20.80;44.95;101626.59;5030285;28;45543;-47
2022/07/11 04:12:06;;;;;;;;;5.75;2.00;;;;;20.79;44.83;101631.06;5034263;28;62316;-50
2022/07/11 04:14:31;;;;;;;;;3.25;3.25;;;;;20.78;44.86;101623.16;5032962;28;45420;-50
2022/07/11 04:16:57;;;;;;;;;4.00;4.00;;;;;20.77;45.20;101627.63;5033488;28;45602;-52
2022/07/11 04:19:23;;;;;;;;;4.75;3.00;;;;;20.76;45.39;101628.56;5030167;28;62959;-52
2022/07/11 04:21:48;;;;;;;;;3.00;3.00;;;;;20.75;44.90;101628.66;5027903;28;45614;-46
2022/07/11 04:24:14;;;;;;;;;7.50;4.00;;;;;20.73;45.12;101623.41;5027696;28;45480;-50
2022/07/11 04:26:40;;;;;;;;;6.00;5.00;;;;;20.73;45.17;101630.53;5030530;28;54465;-49
2022/07/11 04:29:05;;;;;;;;;3.50;3.50;;;;;20.75;45.59;101632.19;5029338;28;45499;-48
2022/07/11 04:31:31;;;;;;;;;4.25;3.25;;;;;20.77;45.36;101630.28;5029095;28;45268;-48
2022/07/11 04:33:56;;;;;;;;;4.50;3.00;;;;;20.77;45.35;101635.63;5025268;28;59275;-46
2022/07/11 04:36:22;;;;;;;;;5.00;3.50;;;;;20.80;45.41;101637.22;5022564;28;47711;-50
2022/07/11 04:38:47;;;;;;;;;8.00;5.00;;;;;20.81;45.39;101644.28;5034093;28;45295;-49
2022/07/11 04:41:12;;;;;;;;;5.00;4.25;;;;;20.81;45.21;101650.44;5030681;28;59687;-49
2022/07/11 04:43:38;;;;;;;;;3.00;3.00;;;;;20.83;45.07;101650.38;5026238;28;68035;-50
2022/07/11 04:46:04;;;;;;;;;3.50;3.00;;;;;20.84;45.00;101657.38;5030096;28;45849;-47
2022/07/11 04:48:30;;;;;;;;;3.75;3.75;;;;;20.83;45.14;101663.69;5032553;28;45720;-46
2022/07/11 04:50:55;;;;;;;;;3.00;3.00;;;;;20.82;45.16;101657.50;5031791;28;45348;-49
2022/07/11 04:53:21;;;;;;;;;3.25;3.25;;;;;20.82;45.72;101653.97;5023465;28;45434;-51
2022/07/11 04:55:46;;;;;;;;;4.75;4.00;;;;;20.81;45.05;101658.44;5028639;28;64226;-49
2022/07/11 04:58:11;;;;;;;;;4.75;4.75;;;;;20.80;45.98;101654.03;5035844;28;45503;-50
2022/07/11 05:00:37;;;;;;;;;4.00;4.00;;;;;20.81;45.52;101663.75;5031860;28;62606;-49
2022/07/11 05:03:03;;;;;;;;;5.00;5.00;;;;;20.82;45.30;101661.94;5023789;28;49405;-50
2022/07/11 05:05:28;;;;;;;;;7.50;6.00;;;;;20.83;45.64;101661.88;5034893;28;45396;-48
2022/07/11 05:07:54;;;;;;;;;6.00;5.25;;;;;20.86;45.50;101660.84;5024757;28;45531;-48
2022/07/11 05:10:20;;;;;;;;;5.50;4.50;;;;;20.88;45.76;101658.97;5030290;28;71312;-46
2022/07/11 05:12:45;;;;;;;;;8.00;5.00;;;;;20.92;45.63;101656.97;5029816;28;45256;-45
2022/07/11 05:15:11;;;;;;;;;5.50;5.00;;;;;20.95;45.38;101664.81;5034309;28;51487;-51
2022/07/11 05:17:36;;;;;;;;;5.75;4.00;;;;;20.98;45.63;101668.16;5022992;28;67691;-48
2022/07/11 05:20:03;;;;;;;;;5.50;5.50;;;;;20.97;45.74;101669.09;5024972;28;59382;-47
2022/07/11 05:22:28;;;;;;;;;5.00;5.00;;;;;21.00;45.12;101671.59;5030913;28;45434;-46
2022/07/11 05:24:53;;;;;;;;;5.50;5.00;;;;;21.03;45.10;101675.84;5032785;28;62288;-48
2022/07/11 05:27:19;;;;;;;;;4.75;4.00;;;;;21.07;45.34;101679.22;5029593;28;45668;-49
2022/07/11 05:29:44;;;;;;;;;3.25;3.25;;;;;21.09;45.40;101678.19;5022741;28;68286;-47
2022/07/11 05:32:10;;;;;;;;;5.25;4.00;;;;;21.13;45.41;101670.91;5028502;28;45403;-49
2022/07/11 05:34:35;;;;;;;;;6.00;5.00;;;;;21.19;45.39;101676.69;5033183;28;45450;-49
2022/07/11 05:37:01;;;;;;;;;4.25;4.25;;;;;21.24;45.18;101682.63;5036401;28;45538;-52
2022/07/11 05:39:26;;;;;;;;;3.00;3.00;;;;;21.29;44.95;101685.03;5033999;28;54953;-51
2022/07/11 05:41:52;;;;;;;;;6.25;4.50;;;;;21.32;45.11;101689.31;5033390;28;51732;-52
2022/07/11 05:44:18;;;;;;;;;4.50;4.00;;;;;21.35;45.40;101686.50;5026645;28;45448;-50
2022/07/11 05:46:44;;;;;;;;;5.00;3.25;;;;;21.39;45.27;101688.06;5026399;28;45528;-49
2022/07/11 05:49:10;;;;;;;;;5.50;4.75;;;;;21.46;45.13;101680.56;5033560;28;46049;-47
2022/07/11 05:51:36;;;;;;;;;4.00;4.00;;;;;21.49;45.25;101680.41;5032547;28;45443;-48
2022/07/11 05:54:01;;;;;;;;;5.00;5.00;;;;;21.53;44.96;101676.59;5033293;28;45509;-50
2022/07/11 05:56:27;;;;;;;;;4.75;3.50;;;;;21.58;45.03;101671.88;5034446;28;45452;-52
2022/07/11 05:58:53;;;;;;;;;4.00;3.50;;;;;21.66;44.65;101682.09;5033859;28;47116;-51
2022/07/11 06:01:18;;;;;;;;;4.00;4.00;;;;;21.70;44.80;101671.16;5032745;28;45514;-49
2022/07/11 06:03:43;;;;;;;;;5.00;4.00;;;;;21.73;45.04;101676.31;5031921;28;45425;-52
2022/07/11 06:06:10;;;;;;;;;5.75;4.00;;;;;21.77;44.51;101683.16;5033266;28;45350;-49
2022/07/11 06:08:42;;;;;;;;;6.25;5.00;;;;;21.81;44.31;101675.84;5041148;28;47127;-51
2022/07/11 06:11:17;;;;;;;;;3.75;3.75;;;;;21.86;44.68;101688.91;5041175;28;45400;-53
2022/07/11 06:13:44;;;;;;;;;7.25;6.00;;;;;21.90;44.72;101679.75;5037525;28;45494;-51
2022/07/11 06:16:10;;;;;;;;;6.25;4.00;;;;;21.93;44.61;101685.78;5037531;28;45372;-52
2022/07/11 06:18:36;;;;;;;;;8.00;5.00;;;;;21.97;44.69;101689.09;5036284;28;49818;-49
2022/07/11 06:21:02;;;;;;;;;6.25;5.00;;;;;22.03;44.48;101693.22;5034014;28;45317;-47
2022/07/11 06:23:28;;;;;;;;;4.50;4.50;;;;;22.06;44.17;101693.91;5027171;28;45439;-47
2022/07/11 06:25:55;;;;;;;;;6.00;5.00;;;;;22.10;44.06;101689.25;5031993;28;45532;-47
2022/07/11 06:28:20;;;;;;;;;6.00;4.50;;;;;22.13;44.62;101686.38;5036695;28;48404;-45
2022/07/11 06:30:45;;;;;;;;;4.25;3.75;;;;;22.16;44.34;101686.19;5036207;28;45456;-48
2022/07/11 06:33:11;;;;;;;;;4.25;4.25;;;;;22.20;44.19;101690.38;5036737;28;45552;-46
2022/07/11 06:35:37;;;;;;;;;11.75;3.50;;;;;22.24;43.87;101686.59;5033338;28;45853;-42
2022/07/11 06:38:02;;;;;;;;;4.75;3.25;;;;;22.28;44.45;101689.97;5050965;28;47264;-45
2022/07/11 06:40:28;;;;;;;;;6.00;4.00;;;;;22.32;43.96;101686.16;5029414;28;45502;-45
2022/07/11 06:42:54;;;;;;;;;4.75;4.25;;;;;22.34;43.89;101679.75;5043120;28;69065;-46
2022/07/11 06:45:19;;;;;;;;;5.75;3.75;;;;;22.36;44.33;101680.56;5032799;28;45493;-47
2022/07/11 06:47:44;;;;;;;;;6.25;4.00;;;;;22.41;44.07;101682.06;5032958;28;45386;-47
2022/07/11 06:50:10;;;;;;;;;4.75;4.50;;;;;22.43;43.89;101681.00;5034862;28;67808;-41
2022/07/11 06:52:35;;;;;;;;;5.50;5.00;;;;;22.49;43.67;101677.13;5031932;28;45441;-44
2022/07/11 06:55:01;;;;;;;;;6.75;3.75;;;;;22.52;43.84;101675.13;5030926;28;45442;-48
2022/07/11 06:57:26;;;;;;;;;3.25;3.00;;;;;22.58;43.75;101670.34;5037948;28;48279;-48
2022/07/11 06:59:52;;;;;;;;;5.25;3.75;;;;;22.60;43.69;101666.63;5028532;28;45359;-46
2022/07/11 07:02:17;;;;;;;;;5.25;4.75;;;;;22.68;43.36;101675.00;5033205;28;45534;-47
2022/07/11 07:04:42;;;;;;;;;5.25;5.25;;;;;22.77;43.23;101683.38;5030914;28;71661;-50
2022/07/11 07:07:08;;;;;;;;;4.50;3.00;;;;;22.82;43.34;101687.47;5038061;28;65942;-46
2022/07/11 07:09:33;;;;;;;;;4.75;4.00;;;;;22.86;43.48;101683.66;5030158;28;62822;-49
2022/07/11 07:11:58;;;;;;;;;5.25;4.00;;;;;22.92;43.58;101680.59;5039320;28;45353;-48
2022/07/11 07:14:24;;;;;;;;;5.75;3.00;;;;;22.98;42.88;101671.31;5033267;28;45781;-46
2022/07/11 07:16:49;;;;;;;;;3.00;3.00;;;;;23.03;42.95;101677.22;5026084;28;74492;-47
2022/07/11 07:19:15;;;;;;;;;5.25;3.00;;;;;23.09;42.80;101690.22;5027263;28;65094;-46
2022/07/11 07:21:40;;;;;;;;;5.75;5.75;;;;;23.14;42.47;101687.22;5035843;28;45255;-46
2022/07/11 07:24:05;;;;;;;;;3.00;3.00;;;;;23.18;42.79;101688.75;5031085;28;45466;-46
2022/07/11 07:26:32;;;;;;;;;6.00;4.00;;;;;23.22;42.80;101690.28;5021220;28;49101;-43
2022/07/11 07:28:57;;;;;;;;;2.00;2.00;;;;;23.26;42.67;101689.09;5024466;28;45752;-45
2022/07/11 07:31:23;;;;;;;;;2.50;2.00;;;;;23.31;42.18;101688.81;5028091;28;58492;-41
2022/07/11 07:33:49;;;;;;;;;3.00;3.00;;;;;23.36;42.14;101691.19;5027071;28;45968;-46
2022/07/11 07:36:14;;;;;;;;;4.00;3.50;;;;;23.42;42.52;101688.94;5028594;28;45964;-44
2022/07/11 07:38:41;;;;;;;;;4.00;2.25;;;;;23.45;42.09;101685.22;5026265;28;45391;-46
2022/07/11 07:41:06;;;;;;;;;3.50;3.00;;;;;23.50;42.28;101688.47;5028579;28;45501;-47
2022/07/11 07:43:32;;;;;;;;;3.25;3.25;;;;;23.55;42.17;101686.34;5024760;28;45443;-42
2022/07/11 07:45:57;;;;;;;;;3.25;2.75;;;;;23.60;41.81;101684.22;5027335;28;67408;-43
2022/07/11 07:48:22;;;;;;;;;3.75;3.00;;;;;23.64;42.07;101685.72;5034641;28;45499;-45
2022/07/11 07:50:48;;;;;;;;;4.00;3.25;;;;;23.72;41.73;101687.00;5047882;28;62033;-49
2022/07/11 07:53:15;;;;;;;;;2.75;2.00;;;;;23.80;41.49;101695.38;5023104;28;45694;-42
2022/07/11 07:55:40;;;;;;;;;4.25;2.25;;;;;23.84;41.58;101689.75;5028644;28;46450;-41
2022/07/11 07:58:05;;;;;;;;;3.50;3.00;;;;;23.90;41.20;101695.63;5034357;28;67649;-43
2022/07/11 08:03:15;;;;;;;;;3.00;3.00;;;;;24.00;41.08;101681.53;5035457;28;45211;-47
2022/07/11 08:05:40;;;;;;;;;4.25;3.75;;;;;24.06;41.01;101689.16;5031730;28;47198;-44
2022/07/11 08:08:06;;;;;;;;;3.00;3.00;;;;;24.12;40.56;101685.19;5028137;28;45201;-45
2022/07/11 08:10:31;;;;;;;;;3.25;2.25;;;;;24.17;40.64;101688.41;5025817;28;45357;-46
2022/07/11 08:12:56;;;;;;;;;3.00;3.00;;;;;24.20;40.63;101685.47;5025337;28;55208;-41
2022/07/11 08:15:22;;;;;;;;;3.00;3.00;;;;;24.26;40.63;101692.25;5035041;28;45458;-42
2022/07/11 08:17:48;;;;;;;;;3.25;3.25;;;;;24.30;40.60;101687.53;5041322;28;45477;-41
2022/07/11 08:20:13;;;;;;;;;6.00;5.00;;;;;24.35;40.71;101685.41;5031643;28;52108;-41
2022/07/11 08:22:38;;;;;;;;;4.00;4.00;;;;;24.40;40.48;101677.88;5038221;28;46856;-41
2022/07/11 08:25:04;;;;;;;;;5.25;4.50;;;;;24.45;40.27;101684.66;5020036;28;77499;-43
2022/07/11 08:27:30;;;;;;;;;4.75;3.75;;;;;24.50;40.20;101675.44;5025616;28;45526;-42
2022/07/11 08:29:56;;;;;;;;;3.25;2.00;;;;;24.53;40.14;101670.75;5021159;28;45426;-44
2022/07/11 08:32:21;;;;;;;;;2.75;2.75;;;;;24.58;40.09;101662.41;5034360;28;45716;-42
2022/07/11 08:34:46;;;;;;;;;4.00;3.00;;;;;24.64;40.35;101654.75;5032965;28;72011;-47
2022/07/11 08:37:12;;;;;;;;;2.00;2.00;;;;;24.72;40.03;101650.66;5038325;28;45431;-42
2022/07/11 08:39:37;;;;;;;;;3.25;1.75;;;;;24.78;39.81;101656.44;5035412;28;45442;-42
2022/07/11 08:42:03;;;;;;;;;2.00;2.00;;;;;24.81;39.73;101642.84;5034144;28;45456;-44
2022/07/11 08:44:28;;;;;;;;;2.75;2.75;;;;;24.86;39.60;101645.19;5033038;28;48142;-44
2022/07/11 08:46:54;;;;;;;;;2.25;1.25;;;;;24.90;39.34;101649.34;5025161;28;64621;-42
2022/07/11 08:49:20;;;;;;;;;4.00;2.50;;;;;24.94;39.27;101644.63;5035124;28;45471;-44
2022/07/11 08:51:46;;;;;;;;;3.00;3.00;;;;;24.97;39.28;101642.56;5035416;28;45474;-43
2022/07/11 08:54:12;;;;;;;;;2.25;2.25;;;;;25.00;39.06;101645.03;5029874;28;45573;-45
2022/07/11 08:56:37;;;;;;;;;2.00;2.00;;;;;25.04;38.85;101637.63;5035398;28;45718;-45
2022/07/11 08:59:03;;;;;;;;;3.50;3.25;;;;;25.09;38.74;101643.50;5031375;28;45280;-43
2022/07/11 09:01:35;;;;;;;;;4.50;2.25;;;;;25.16;38.75;101646.56;5036585;28;45360;-46
2022/07/11 09:04:01;;;;;;;;;3.50;1.25;;;;;25.22;39.09;101646.13;5026829;28;45491;-43
2022/07/11 09:06:27;;;;;;;;;2.00;1.00;;;;;25.27;38.91;101645.78;5018923;28;45431;-45
2022/07/11 09:08:58;;;;;;;;;2.00;2.00;;;;;25.32;38.59;101644.50;5025565;28;45243;-46
2022/07/11 09:11:23;;;;;;;;;3.25;3.00;;;;;25.38;38.88;101640.50;5024458;28;45237;-46
2022/07/11 09:13:48;;;;;;;;;2.25;2.25;;;;;25.43;38.68;101638.31;5031193;28;74569;-44
2022/07/11 09:16:17;;;;;;;;;1.00;1.00;;;;;25.48;38.77;101648.66;5030503;28;71486;-44
2022/07/11 09:18:42;;;;;;;;;2.00;2.00;;;;;25.51;38.46;101641.25;5023271;28;45743;-44
2022/07/11 09:26:42;;;;;;;;;4.00;1.75;;;;;25.67;38.53;101640.09;5039302;28;45486;-42
2022/07/11 09:29:09;;;;;;;;;2.25;2.25;;;;;25.72;38.60;101637.91;5028543;28;45379;-42
2022/07/11 09:31:35;;;;;;;;;1.00;1.00;;;;;25.76;38.26;101628.66;5033764;28;45509;-41
2022/07/11 09:34:08;;;;;;;;;2.75;2.75;;;;;25.83;38.07;101627.19;5032216;28;45289;-44
2022/07/11 09:36:37;;;;;;;;;4.25;3.00;;;;;25.88;38.22;101622.34;5039570;28;45292;-42
2022/07/11 09:39:04;;;;;;;;;3.25;2.00;;;;;25.96;37.88;101616.44;5033130;28;45623;-45
2022/07/11 09:41:33;;;;;;;;;5.25;4.00;;;;;26.06;38.18;101625.44;5033936;28;45368;-42
2022/07/11 09:44:11;;;;;;;;;1.00;1.00;;;;;26.18;38.09;101626.31;5031155;28;45324;-43
2022/07/11 09:46:37;;;;;;;;;3.25;3.25;;;;;26.45;37.74;101615.19;5039127;28;45230;-41
2022/07/11 09:49:03;;;;;;;;;3.00;3.00;;;;;27.00;37.69;101620.63;5032765;28;45368;-43
2022/07/11 09:51:31;;;;;;;;;4.00;3.50;;;;;28.10;36.99;101622.16;5036697;28;45493;-43
2022/07/11 09:53:57;;;;;;;;;1.00;1.00;;;;;29.76;35.28;101625.16;5031475;28;47532;-45
2022/07/11 09:56:45;;;;;;;;;2.25;1.00;;;;;31.62;33.50;101619.53;5033313;28;45396;-43
2022/07/11 09:59:12;;;;;;;;;2.00;0.75;;;;;33.40;31.50;101619.53;5034645;28;45214;-45
2022/07/11 10:01:39;;;;;;;;;1.00;1.00;;;;;34.74;28.21;101618.00;5028267;28;45272;-45
2022/07/11 10:04:06;;;;;;;;;1.75;1.75;;;;;36.01;27.41;101611.94;5025652;28;46462;-45
2022/07/11 10:06:31;;;;;;;;;2.25;0.50;;;;;37.20;26.69;101610.84;5055210;28;45703;-42
2022/07/11 10:08:57;;;;;;;;;2.00;1.00;;;;;38.26;23.40;101615.38;5034397;28;69224;-44
2022/07/11 10:11:22;;;;;;;;;1.75;0.50;;;;;39.20;24.47;101614.56;5036200;28;45672;-43
2022/07/11 10:13:48;;;;;;;;;2.00;1.25;;;;;40.08;23.44;101616.16;5037563;28;45430;-43
2022/07/11 10:16:32;;;;;;;;;3.25;1.00;;;;;40.96;22.51;101622.91;5017941;28;45461;-44
2022/07/11 10:19:43;;;;;;;;;1.50;1.50;;;;;41.90;20.83;101621.00;5032617;28;45427;-46
2022/07/11 10:22:42;;;;;;;;;1.25;1.00;;;;;42.85;20.25;101608.56;5032949;28;45476;-42
2022/07/11 10:25:17;;;;;;;;;1.25;1.00;;;;;43.56;19.19;101608.66;5021937;28;46242;-47
2022/07/11 10:27:55;;;;;;;;;1.00;1.00;;;;;43.81;17.53;101610.34;5041032;28;45806;-43
2022/07/11 10:30:45;;;;;;;;;1.00;1.00;;;;;44.19;17.89;101616.38;5045144;28;45408;-46
2022/07/11 10:33:10;;;;;;;;;8.50;5.75;;;;;44.39;18.05;101622.25;5039590;28;45688;-46
2022/07/11 10:35:39;;;;;;;;;1.00;1.00;;;;;44.55;18.18;101623.41;5035502;28;45649;-48
2022/07/11 10:38:06;;;;;;;;;0.50;0.50;;;;;44.60;16.87;101619.94;5031143;28;45421;-47
2022/07/11 10:40:45;;;;;;;;;2.00;2.00;;;;;44.84;17.47;101629.75;5033768;28;46691;-45
2022/07/11 10:43:11;;;;;;;;;2.75;0.00;;;;;45.40;16.64;101621.56;5030327;28;45338;-49
2022/07/11 10:45:50;;;;;;;;;1.50;1.25;;;;;46.09;15.73;101616.69;5038074;28;46041;-50
2022/07/11 10:48:15;;;;;;;;;5.00;2.00;;;;;46.79;15.08;101626.88;5040043;28;45319;-45
2022/07/11 10:50:42;;;;;;;;;1.50;1.25;;;;;47.26;15.50;101618.97;5025398;28;65543;-47
2022/07/11 10:53:10;;;;;;;;;0.50;0.00;;;;;47.67;13.60;101613.69;5040300;28;45490;-45
2022/07/11 10:56:04;;;;;;;;;0.00;0.00;;;;;47.89;14.60;101617.09;5020347;28;45341;-46
2022/07/11 10:58:31;;;;;;;;;1.00;0.00;;;;;48.05;13.93;101615.25;5045226;28;45777;-49
2022/07/11 11:01:14;;;;;;;;;0.00;0.00;;;;;48.50;14.41;101618.41;5029545;28;45433;-46
2022/07/11 11:03:40;;;;;;;;;0.00;0.00;;;;;48.61;12.99;101627.59;5036851;28;47135;-43
2022/07/11 11:06:06;;;;;;;;;0.25;0.25;;;;;48.69;13.36;101615.09;5035259;28;45373;-42
2022/07/11 11:08:31;;;;;;;;;1.00;1.00;;;;;48.68;13.52;101608.69;5028686;28;45855;-44
2022/07/11 11:10:58;;;;;;;;;6.00;2.50;;;;;48.75;13.23;101609.31;5037739;28;45598;-47
2022/07/11 11:13:24;;;;;;;;;0.00;0.00;;;;;48.75;14.14;101605.69;5037919;28;45294;-46
2022/07/11 11:15:57;;;;;;;;;1.00;0.25;;;;;48.66;13.75;101602.59;5056401;28;47647;-46
2022/07/11 11:18:25;;;;;;;;;0.75;0.25;;;;;48.82;14.04;101607.09;5034911;28;46101;-47
2022/07/11 11:21:02;;;;;;;;;0.00;0.00;;;;;49.19;13.07;101591.19;5032236;28;45550;-46
2022/07/11 11:23:40;;;;;;;;;0.00;0.00;;;;;49.55;13.16;101586.41;5038092;28;45604;-44
2022/07/11 11:26:11;;;;;;;;;1.00;1.00;;;;;49.71;12.10;101583.53;5035969;28;46234;-47
2022/07/11 11:29:05;;;;;;;;;1.50;1.50;;;;;49.70;13.20;101587.44;5033730;28;45370;-45
2022/07/11 11:31:31;;;;;;;;;0.25;0.00;;;;;49.51;12.82;101588.06;5031997;28;45500;-48